Time;durP1;ratioP1;P1;durP2;ratioP2;P2;SDS_P1;SDS_P2;PMS_P1;PMS_P2;Temp;Humidity;BMP_temperature;BMP_pressure;BME280_temperature;BME280_humidity;BME280_pressure;Samples;Min_cycle;Max_cycle;Signal;HPM_P1;HPM_P2
2024/02/19 00:00:24;;;;;;;3.97;2.90;;;21.30;54.30;;;;;;5036124;28;20473;-66
2024/02/19 00:02:50;;;;;;;4.32;3.10;;;21.30;54.30;;;;;;5038945;28;20022;-66
2024/02/19 00:05:16;;;;;;;4.55;3.15;;;21.30;54.30;;;;;;5038893;28;20378;-66
2024/02/19 00:07:41;;;;;;;3.85;2.83;;;21.30;54.30;;;;;;5036865;28;20358;-66
2024/02/19 00:10:08;;;;;;;4.28;3.30;;;21.30;54.30;;;;;;5040349;28;20473;-66
2024/02/19 00:12:33;;;;;;;4.07;3.00;;;21.30;54.30;;;;;;5040849;28;20092;-66
2024/02/19 00:14:59;;;;;;;5.65;3.22;;;21.30;54.30;;;;;;5035219;28;20473;-66
2024/02/19 00:17:25;;;;;;;3.85;2.90;;;21.30;54.20;;;;;;5039482;28;20061;-66
2024/02/19 00:19:51;;;;;;;4.03;3.00;;;21.30;54.30;;;;;;5037873;28;20535;-66
2024/02/19 00:22:17;;;;;;;4.63;2.85;;;21.30;54.30;;;;;;5038491;28;20163;-66
2024/02/19 00:24:42;;;;;;;5.63;2.80;;;21.30;54.30;;;;;;5038096;28;20524;-66
2024/02/19 00:27:08;;;;;;;4.13;2.80;;;21.30;54.30;;;;;;5038566;28;20202;-66
2024/02/19 00:29:34;;;;;;;3.85;2.58;;;21.30;54.30;;;;;;5036652;28;20063;-66
2024/02/19 00:31:59;;;;;;;4.10;2.88;;;21.20;54.30;;;;;;5039041;28;20100;-64
2024/02/19 00:34:26;;;;;;;3.22;2.60;;;21.20;54.30;;;;;;5035541;28;20564;-64
2024/02/19 00:36:52;;;;;;;4.10;2.60;;;21.20;54.30;;;;;;5037863;28;20052;-64
2024/02/19 00:39:17;;;;;;;4.30;3.05;;;21.20;54.30;;;;;;5038741;28;20033;-64
2024/02/19 00:41:43;;;;;;;4.57;2.78;;;21.20;54.30;;;;;;5039244;28;20037;-63
2024/02/19 00:44:09;;;;;;;4.03;2.78;;;21.20;54.30;;;;;;5038970;28;20036;-64
2024/02/19 00:46:34;;;;;;;4.05;2.95;;;21.20;54.30;;;;;;5037681;28;20097;-64
2024/02/19 00:49:00;;;;;;;3.83;2.38;;;21.20;54.30;;;;;;5038335;28;20045;-64
2024/02/19 00:51:26;;;;;;;4.63;2.72;;;21.20;54.30;;;;;;5037593;28;20024;-64
2024/02/19 00:53:51;;;;;;;4.22;2.60;;;21.20;54.30;;;;;;5035937;28;20029;-64
2024/02/19 00:56:17;;;;;;;4.38;2.75;;;21.20;54.30;;;;;;5039390;28;20544;-64
2024/02/19 00:58:42;;;;;;;3.78;2.67;;;21.20;54.30;;;;;;5034815;28;20099;-64
2024/02/19 01:01:08;;;;;;;3.97;2.50;;;21.20;54.30;;;;;;5034860;28;20072;-63
2024/02/19 01:03:35;;;;;;;3.55;2.53;;;21.20;54.30;;;;;;5038015;28;20477;-64
2024/02/19 01:06:00;;;;;;;3.53;2.50;;;21.20;54.40;;;;;;5037488;28;20033;-64
2024/02/19 01:08:26;;;;;;;4.03;2.47;;;21.10;54.30;;;;;;5038222;28;20026;-64
2024/02/19 01:10:51;;;;;;;3.65;2.58;;;21.10;54.30;;;;;;5037550;28;20037;-65
2024/02/19 01:13:17;;;;;;;3.60;2.53;;;21.10;54.30;;;;;;5034322;28;20032;-66
2024/02/19 01:15:43;;;;;;;4.18;2.70;;;21.10;54.30;;;;;;5033334;28;20036;-63
2024/02/19 01:18:08;;;;;;;4.15;2.83;;;21.10;54.30;;;;;;5038318;28;20041;-64
2024/02/19 01:20:36;;;;;;;3.72;2.70;;;21.10;54.30;;;;;;5038113;28;20500;-63
2024/02/19 01:23:01;;;;;;;4.15;2.45;;;21.10;54.30;;;;;;5034990;28;20032;-64
2024/02/19 01:25:27;;;;;;;4.32;2.78;;;21.10;54.30;;;;;;5039200;28;20033;-64
2024/02/19 01:27:52;;;;;;;4.30;2.53;;;21.00;54.30;;;;;;5037075;28;20109;-63
2024/02/19 01:30:18;;;;;;;3.63;2.53;;;21.10;54.40;;;;;;5035391;28;20091;-64
2024/02/19 01:32:44;;;;;;;3.63;2.40;;;21.00;54.30;;;;;;5037553;28;20137;-62
2024/02/19 01:35:10;;;;;;;4.55;2.63;;;21.10;54.40;;;;;;5038055;28;20366;-63
2024/02/19 01:37:35;;;;;;;3.83;2.60;;;21.00;54.40;;;;;;5037219;28;20583;-63
2024/02/19 01:40:07;;;;;;;3.70;2.50;;;21.00;54.30;;;;;;5037522;28;20090;-64
2024/02/19 01:42:33;;;;;;;3.80;2.40;;;21.00;54.40;;;;;;5035118;28;20546;-68
2024/02/19 01:44:59;;;;;;;3.65;2.33;;;21.00;54.40;;;;;;5035950;28;20108;-69
2024/02/19 01:47:24;;;;;;;4.75;2.47;;;21.00;54.30;;;;;;5036254;28;20029;-69
2024/02/19 01:49:50;;;;;;;3.42;2.13;;;21.00;54.30;;;;;;5035705;28;20071;-68
2024/02/19 01:52:16;;;;;;;3.67;2.50;;;21.00;54.40;;;;;;5037011;28;20033;-68
2024/02/19 01:54:43;;;;;;;3.92;2.33;;;21.00;54.40;;;;;;5034874;28;20582;-68
2024/02/19 01:57:09;;;;;;;3.58;2.40;;;21.00;54.40;;;;;;5035837;28;20367;-68
2024/02/19 01:59:34;;;;;;;3.88;2.40;;;20.90;54.30;;;;;;5067970;28;20151;-68
2024/02/19 02:02:01;;;;;;;3.55;2.30;;;21.00;54.40;;;;;;5036736;28;20036;-68
2024/02/19 02:04:27;;;;;;;3.05;2.13;;;21.00;54.40;;;;;;5034551;28;20084;-68
2024/02/19 02:06:54;;;;;;;3.42;2.25;;;20.90;54.30;;;;;;5037398;28;20052;-68
2024/02/19 02:09:20;;;;;;;2.92;2.15;;;20.90;54.30;;;;;;5038569;28;20037;-69
2024/02/19 02:11:46;;;;;;;3.67;2.17;;;20.90;54.30;;;;;;5038133;28;20029;-68
2024/02/19 02:14:11;;;;;;;3.60;2.30;;;20.90;54.30;;;;;;5038468;28;20045;-68
2024/02/19 02:16:37;;;;;;;4.07;2.80;;;20.90;54.30;;;;;;5038952;28;20095;-68
2024/02/19 02:19:03;;;;;;;3.65;2.40;;;20.90;54.30;;;;;;5040776;28;20112;-69
2024/02/19 02:21:30;;;;;;;3.22;2.15;;;20.90;54.30;;;;;;5040039;28;20511;-68
2024/02/19 02:23:55;;;;;;;3.80;2.50;;;20.90;54.30;;;;;;5040679;28;20044;-66
2024/02/19 02:26:21;;;;;;;3.72;2.75;;;20.90;54.30;;;;;;5040422;28;20021;-66
2024/02/19 02:28:47;;;;;;;2.88;2.05;;;20.90;54.40;;;;;;5041706;28;20018;-66
2024/02/19 02:31:12;;;;;;;3.65;2.40;;;20.90;54.80;;;;;;5039188;28;20951;-66
2024/02/19 02:33:39;;;;;;;4.03;2.50;;;20.90;54.30;;;;;;5039869;28;20064;-66
2024/02/19 02:36:05;;;;;;;3.17;2.33;;;20.90;54.30;;;;;;5039733;28;20017;-66
2024/02/19 02:38:31;;;;;;;3.30;2.35;;;20.90;54.30;;;;;;5039724;28;20521;-66
2024/02/19 02:40:57;;;;;;;3.40;2.45;;;20.90;54.30;;;;;;5041985;28;20057;-66
2024/02/19 02:43:22;;;;;;;3.17;2.30;;;20.90;54.30;;;;;;5038995;28;20444;-62
2024/02/19 02:45:48;;;;;;;3.22;2.22;;;20.80;54.30;;;;;;5038579;28;20041;-63
2024/02/19 02:48:14;;;;;;;3.50;2.13;;;20.80;54.30;;;;;;5039848;28;20080;-63
2024/02/19 02:50:40;;;;;;;2.90;2.15;;;20.80;54.20;;;;;;5040613;28;20059;-65
2024/02/19 02:53:06;;;;;;;3.50;2.33;;;20.80;54.30;;;;;;5041345;28;20056;-64
2024/02/19 02:55:31;;;;;;;2.67;2.00;;;20.80;54.30;;;;;;5041169;28;20112;-63
2024/02/19 02:57:57;;;;;;;4.25;2.20;;;20.80;54.30;;;;;;5041106;28;20029;-64
2024/02/19 03:00:22;;;;;;;3.25;2.20;;;20.80;54.30;;;;;;5036404;28;20029;-64
2024/02/19 03:02:48;;;;;;;3.05;2.22;;;20.80;54.20;;;;;;5040615;28;20034;-63
2024/02/19 03:05:14;;;;;;;3.10;2.00;;;20.80;54.30;;;;;;5041394;28;20563;-64
2024/02/19 03:07:39;;;;;;;2.85;2.00;;;20.80;54.30;;;;;;5041052;28;20033;-64
2024/02/19 03:10:05;;;;;;;3.20;2.10;;;20.80;54.30;;;;;;5039492;28;20514;-63
2024/02/19 03:12:31;;;;;;;3.17;2.05;;;20.80;54.80;;;;;;5039279;28;20052;-63
2024/02/19 03:14:57;;;;;;;3.83;2.17;;;20.80;54.30;;;;;;5035204;28;20060;-64
2024/02/19 03:17:22;;;;;;;3.50;2.42;;;20.70;54.20;;;;;;5040401;28;20021;-64
2024/02/19 03:19:48;;;;;;;4.10;2.47;;;20.70;54.20;;;;;;5038457;28;20036;-64
2024/02/19 03:22:14;;;;;;;3.05;2.30;;;20.70;54.20;;;;;;5041750;28;20067;-64
2024/02/19 03:24:40;;;;;;;3.00;2.13;;;20.70;54.20;;;;;;5039737;28;20048;-65
2024/02/19 03:27:06;;;;;;;3.13;2.10;;;20.70;54.20;;;;;;5040002;28;20040;-65
2024/02/19 03:29:31;;;;;;;3.10;2.10;;;20.70;54.30;;;;;;5037393;28;20028;-65
2024/02/19 03:31:57;;;;;;;3.13;2.13;;;20.70;54.20;;;;;;5038260;28;20068;-68
2024/02/19 03:34:23;;;;;;;3.90;2.00;;;20.70;54.30;;;;;;5041284;28;20416;-69
2024/02/19 03:36:50;;;;;;;3.20;2.15;;;20.70;54.20;;;;;;5040162;28;20032;-68
2024/02/19 03:39:17;;;;;;;2.97;2.05;;;20.70;54.20;;;;;;5041095;28;20017;-68
2024/02/19 03:41:43;;;;;;;3.38;2.00;;;20.70;54.30;;;;;;5041244;28;20095;-68
2024/02/19 03:44:08;;;;;;;3.65;2.58;;;20.70;54.80;;;;;;5038366;28;20032;-68
2024/02/19 03:46:34;;;;;;;2.95;2.00;;;20.70;54.80;;;;;;5037786;28;20025;-68
2024/02/19 03:49:01;;;;;;;3.00;2.10;;;20.70;54.20;;;;;;5040155;28;20064;-68
2024/02/19 03:51:26;;;;;;;2.97;2.00;;;20.70;54.70;;;;;;5038611;28;20094;-68
2024/02/19 03:53:52;;;;;;;2.70;1.90;;;20.70;54.30;;;;;;5039891;28;20030;-62
2024/02/19 03:56:18;;;;;;;3.05;2.00;;;20.70;54.20;;;;;;5037192;28;20495;-63
2024/02/19 03:58:43;;;;;;;2.88;2.00;;;20.70;54.20;;;;;;5040898;28;20104;-63
2024/02/19 04:01:09;;;;;;;3.55;2.47;;;20.70;54.30;;;;;;5036773;28;20092;-62
2024/02/19 04:03:35;;;;;;;3.63;2.30;;;20.70;54.30;;;;;;5039941;28;20056;-66
2024/02/19 04:06:01;;;;;;;3.00;1.92;;;20.70;54.30;;;;;;5038621;28;20033;-66
2024/02/19 04:08:26;;;;;;;2.45;1.90;;;20.70;54.30;;;;;;5038392;28;20033;-66
2024/02/19 04:10:52;;;;;;;3.25;2.10;;;20.70;54.20;;;;;;5039042;28;20037;-66
2024/02/19 04:13:17;;;;;;;2.85;1.88;;;20.70;54.30;;;;;;5038581;28;20030;-66
2024/02/19 04:15:43;;;;;;;2.60;1.70;;;20.60;54.20;;;;;;5038107;28;20022;-66
2024/02/19 04:18:09;;;;;;;2.88;2.00;;;20.60;54.20;;;;;;5038659;28;20163;-66
2024/02/19 04:20:34;;;;;;;3.17;2.00;;;20.60;54.20;;;;;;5036819;28;21515;-66
2024/02/19 04:23:00;;;;;;;2.58;1.80;;;20.60;54.20;;;;;;5038269;28;20026;-66
2024/02/19 04:25:26;;;;;;;3.25;2.17;;;20.60;54.20;;;;;;5038525;28;20220;-66
2024/02/19 04:27:52;;;;;;;3.33;1.85;;;20.60;54.20;;;;;;5037804;28;20036;-66
2024/02/19 04:30:18;;;;;;;3.00;2.08;;;20.60;54.70;;;;;;5037563;28;20021;-66
2024/02/19 04:32:43;;;;;;;3.25;1.90;;;20.60;54.10;;;;;;5039610;28;20029;-66
2024/02/19 04:35:09;;;;;;;2.22;1.58;;;20.60;54.10;;;;;;5038649;28;20404;-66
2024/02/19 04:37:35;;;;;;;2.30;1.77;;;20.60;54.10;;;;;;5039086;28;20084;-66
2024/02/19 04:40:01;;;;;;;2.40;1.80;;;20.60;54.10;;;;;;5038552;28;20025;-66
2024/02/19 04:42:26;;;;;;;2.17;1.55;;;20.60;54.10;;;;;;5037396;28;20477;-66
2024/02/19 04:44:52;;;;;;;2.55;1.77;;;20.60;54.10;;;;;;5040147;28;20354;-66
2024/02/19 04:47:17;;;;;;;2.70;1.90;;;20.60;54.10;;;;;;5037271;28;20051;-66
2024/02/19 04:49:43;;;;;;;2.70;1.55;;;20.60;54.10;;;;;;5038020;28;20465;-66
2024/02/19 04:52:09;;;;;;;2.20;1.60;;;20.60;54.10;;;;;;5038886;28;20036;-66
2024/02/19 04:54:34;;;;;;;2.63;1.80;;;20.60;54.10;;;;;;5036084;28;20025;-66
2024/02/19 04:57:00;;;;;;;2.10;1.50;;;20.60;54.10;;;;;;5036311;28;20024;-65
2024/02/19 04:59:29;;;;;;;2.67;1.70;;;20.60;54.10;;;;;;5039340;28;20055;-66
2024/02/19 05:01:55;;;;;;;2.00;1.50;;;20.60;54.10;;;;;;5035026;28;20037;-66
2024/02/19 05:04:21;;;;;;;2.88;1.90;;;20.60;54.10;;;;;;5036242;28;20047;-66
2024/02/19 05:06:49;;;;;;;2.80;1.75;;;20.60;54.10;;;;;;5037529;28;20035;-65
2024/02/19 05:09:14;;;;;;;2.85;1.90;;;20.60;54.10;;;;;;5039880;28;20450;-65
2024/02/19 05:11:40;;;;;;;2.30;1.70;;;20.60;54.20;;;;;;5037801;28;20108;-66
2024/02/19 05:14:06;;;;;;;2.40;1.70;;;20.50;54.20;;;;;;5039699;28;20025;-66
2024/02/19 05:16:31;;;;;;;2.72;1.60;;;20.60;54.30;;;;;;5036708;28;20037;-66
2024/02/19 05:18:59;;;;;;;2.50;1.50;;;20.60;54.90;;;;;;5037603;28;20112;-66
2024/02/19 05:21:25;;;;;;;2.47;1.60;;;20.60;54.50;;;;;;5035904;28;20017;-66
2024/02/19 05:23:51;;;;;;;2.30;1.50;;;20.60;54.50;;;;;;5036161;28;20037;-66
2024/02/19 05:26:25;;;;;;;2.40;1.40;;;20.50;54.40;;;;;;5038151;28;20108;-65
2024/02/19 05:28:52;;;;;;;3.58;1.67;;;20.50;54.50;;;;;;5035021;28;20037;-66
2024/02/19 05:31:37;;;;;;;2.22;1.50;;;20.50;54.40;;;;;;5032497;28;20452;-66
2024/02/19 05:34:04;;;;;;;2.47;1.63;;;20.50;54.50;;;;;;5038378;28;20493;-66
2024/02/19 05:36:31;;;;;;;2.67;1.40;;;20.50;54.50;;;;;;5037057;28;20025;-66
2024/02/19 05:38:56;;;;;;;2.45;1.83;;;20.50;54.60;;;;;;5033464;28;20029;-65
2024/02/19 05:41:22;;;;;;;2.20;1.40;;;20.50;54.70;;;;;;5037292;28;20047;-65
2024/02/19 05:43:48;;;;;;;2.58;1.67;;;20.50;54.80;;;;;;5034045;28;20025;-66
2024/02/19 05:46:14;;;;;;;1.85;1.40;;;20.50;54.80;;;;;;5035393;28;20025;-66
2024/02/19 05:48:41;;;;;;;3.15;1.85;;;20.50;54.90;;;;;;5040206;28;20551;-66
2024/02/19 05:51:06;;;;;;;3.00;1.50;;;20.50;54.90;;;;;;5039954;28;20056;-66
2024/02/19 05:53:34;;;;;;;2.08;1.40;;;20.50;54.90;;;;;;5038468;28;20029;-63
2024/02/19 05:56:00;;;;;;;1.73;1.30;;;20.50;55.40;;;;;;5041821;28;20124;-63
2024/02/19 05:58:26;;;;;;;2.75;1.45;;;20.50;54.90;;;;;;5041557;28;20090;-64
2024/02/19 06:00:51;;;;;;;2.33;1.50;;;20.50;54.90;;;;;;5037552;28;20112;-62
2024/02/19 06:03:17;;;;;;;2.00;1.27;;;20.50;54.80;;;;;;5055520;28;20462;-63
2024/02/19 06:05:43;;;;;;;1.90;1.30;;;20.50;54.80;;;;;;5042932;28;21024;-65
2024/02/19 06:08:08;;;;;;;2.30;1.50;;;20.50;54.80;;;;;;5041476;28;20575;-63
2024/02/19 06:10:34;;;;;;;2.75;1.50;;;20.50;55.10;;;;;;5038071;28;20017;-63
2024/02/19 06:12:59;;;;;;;2.58;1.38;;;20.50;55.20;;;;;;5039503;28;20529;-64
2024/02/19 06:15:27;;;;;;;2.70;1.50;;;20.50;55.20;;;;;;5055406;28;20021;-64
2024/02/19 06:17:53;;;;;;;2.17;1.35;;;20.50;55.30;;;;;;5039349;28;20108;-65
2024/02/19 06:20:18;;;;;;;2.30;1.30;;;20.50;55.20;;;;;;5041986;28;20152;-64
2024/02/19 06:22:44;;;;;;;1.95;1.30;;;20.50;55.10;;;;;;5041804;28;20417;-63
2024/02/19 06:25:11;;;;;;;2.00;1.27;;;20.50;55.10;;;;;;5043881;28;20036;-63
2024/02/19 06:27:37;;;;;;;2.30;1.40;;;20.50;55.00;;;;;;5040586;28;20159;-63
2024/02/19 06:30:03;;;;;;;2.50;1.60;;;20.50;55.10;;;;;;5040262;28;20158;-63
2024/02/19 06:32:28;;;;;;;2.30;1.38;;;20.50;55.00;;;;;;5040299;28;20037;-63
2024/02/19 06:34:54;;;;;;;2.03;1.20;;;20.50;55.00;;;;;;5041091;28;20052;-62
2024/02/19 06:37:20;;;;;;;2.70;1.45;;;20.50;55.00;;;;;;5041242;28;20036;-62
2024/02/19 06:39:45;;;;;;;2.35;1.30;;;20.50;55.00;;;;;;5041751;28;20033;-63
2024/02/19 06:42:11;;;;;;;2.03;1.30;;;20.50;55.00;;;;;;5041932;28;20434;-63
2024/02/19 06:44:37;;;;;;;3.10;1.77;;;20.50;55.00;;;;;;5040764;28;20218;-63
2024/02/19 06:47:03;;;;;;;1.77;1.17;;;20.50;55.00;;;;;;5037515;28;20029;-64
2024/02/19 06:49:29;;;;;;;2.35;1.20;;;20.50;55.00;;;;;;5038620;28;20037;-64
2024/02/19 06:51:54;;;;;;;2.08;1.35;;;20.50;55.00;;;;;;5039122;28;20029;-62
2024/02/19 06:54:20;;;;;;;2.25;1.40;;;20.50;55.00;;;;;;5042059;28;20076;-63
2024/02/19 06:56:45;;;;;;;2.08;1.40;;;20.50;54.90;;;;;;5042462;28;20025;-64
2024/02/19 06:59:12;;;;;;;2.10;1.30;;;20.50;55.00;;;;;;5038122;28;20039;-64
2024/02/19 07:01:39;;;;;;;3.35;1.40;;;20.50;55.00;;;;;;5038408;28;20915;-63
2024/02/19 07:04:08;;;;;;;2.00;1.35;;;20.50;55.00;;;;;;5041675;28;20103;-63
2024/02/19 07:06:34;;;;;;;2.40;1.40;;;20.50;55.00;;;;;;5036527;28;20036;-63
2024/02/19 07:08:59;;;;;;;2.25;1.30;;;20.50;55.00;;;;;;5042361;28;20044;-63
2024/02/19 07:11:25;;;;;;;2.35;1.40;;;20.50;55.00;;;;;;5041679;28;20469;-64
2024/02/19 07:13:55;;;;;;;3.85;1.45;;;20.40;54.90;;;;;;5038950;28;20108;-63
2024/02/19 07:16:21;;;;;;;2.92;1.30;;;20.50;55.00;;;;;;5038147;28;20040;-64
2024/02/19 07:18:47;;;;;;;2.00;1.30;;;20.40;54.90;;;;;;5040682;28;20041;-63
2024/02/19 07:21:13;;;;;;;2.38;1.25;;;20.50;55.00;;;;;;5039346;28;20093;-64
2024/02/19 07:23:39;;;;;;;2.45;1.30;;;20.40;54.90;;;;;;5041462;28;20433;-64
2024/02/19 07:26:05;;;;;;;2.25;1.33;;;20.40;54.90;;;;;;5040117;28;20029;-64
2024/02/19 07:28:30;;;;;;;2.47;1.33;;;20.40;54.90;;;;;;5040993;28;20143;-64
2024/02/19 07:30:56;;;;;;;2.13;1.27;;;20.40;54.90;;;;;;5036410;28;20025;-65
2024/02/19 07:33:22;;;;;;;1.75;1.08;;;20.50;54.90;;;;;;5039115;28;20096;-64
2024/02/19 07:35:48;;;;;;;2.30;1.30;;;20.50;54.90;;;;;;5038871;28;20080;-64
2024/02/19 07:38:15;;;;;;;4.32;1.40;;;20.40;54.90;;;;;;5038527;28;20033;-65
2024/02/19 07:40:41;;;;;;;2.25;1.30;;;20.40;54.90;;;;;;5036899;28;20029;-64
2024/02/19 07:43:06;;;;;;;2.30;1.40;;;20.40;54.90;;;;;;5038283;28;20087;-64
2024/02/19 07:45:32;;;;;;;2.30;1.40;;;20.40;54.90;;;;;;5053762;28;20025;-65
2024/02/19 07:47:57;;;;;;;2.10;1.30;;;20.40;54.90;;;;;;5034960;28;20551;-65
2024/02/19 07:50:23;;;;;;;2.53;1.20;;;20.40;54.90;;;;;;5040361;28;20123;-64
2024/02/19 07:52:49;;;;;;;2.78;1.35;;;20.40;54.90;;;;;;5038849;28;20469;-65
2024/02/19 07:55:14;;;;;;;2.05;1.23;;;20.40;54.90;;;;;;5040720;28;20025;-64
2024/02/19 07:57:40;;;;;;;1.90;1.20;;;20.40;54.90;;;;;;5039469;28;20063;-65
2024/02/19 08:00:06;;;;;;;2.45;1.40;;;20.40;54.90;;;;;;5036170;28;20865;-65
2024/02/19 08:02:32;;;;;;;2.35;1.30;;;20.40;54.90;;;;;;5038169;28;20442;-65
2024/02/19 08:04:57;;;;;;;2.03;1.20;;;20.40;54.90;;;;;;5036727;28;20068;-65
2024/02/19 08:07:23;;;;;;;2.08;1.60;;;20.40;54.90;;;;;;5038876;28;20021;-65
2024/02/19 08:09:49;;;;;;;1.75;1.02;;;20.40;55.40;;;;;;5040085;28;20033;-65
2024/02/19 08:12:14;;;;;;;2.67;1.27;;;20.40;54.80;;;;;;5037540;28;20020;-64
2024/02/19 08:14:40;;;;;;;1.80;1.30;;;20.40;54.90;;;;;;5040012;28;20017;-63
2024/02/19 08:17:06;;;;;;;2.42;1.20;;;20.40;54.80;;;;;;5039112;28;20052;-62
2024/02/19 08:19:32;;;;;;;1.83;1.23;;;20.40;54.80;;;;;;5040312;28;20029;-63
2024/02/19 08:21:58;;;;;;;1.60;1.13;;;20.40;54.80;;;;;;5036871;28;20052;-62
2024/02/19 08:24:25;;;;;;;2.53;1.27;;;20.40;54.90;;;;;;5040339;28;20445;-62
2024/02/19 08:26:51;;;;;;;2.08;1.42;;;20.40;54.90;;;;;;5038951;28;20141;-63
2024/02/19 08:29:17;;;;;;;1.65;1.23;;;20.40;54.80;;;;;;5039112;28;20047;-62
2024/02/19 08:31:43;;;;;;;2.47;1.20;;;20.40;54.80;;;;;;5037448;28;20033;-64
2024/02/19 08:34:09;;;;;;;2.45;1.20;;;20.40;54.80;;;;;;5039669;28;20489;-62
2024/02/19 08:36:36;;;;;;;1.63;1.05;;;20.40;54.80;;;;;;5040924;28;20460;-62
2024/02/19 08:39:02;;;;;;;1.80;1.15;;;20.40;54.90;;;;;;5038473;28;20112;-65
2024/02/19 08:41:31;;;;;;;2.05;1.20;;;20.40;54.90;;;;;;5040594;28;20592;-63
2024/02/19 08:43:57;;;;;;;1.90;1.13;;;20.30;54.80;;;;;;5041963;28;20466;-63
2024/02/19 08:46:22;;;;;;;1.75;1.20;;;20.40;54.90;;;;;;5041268;28;20035;-63
2024/02/19 08:48:53;;;;;;;1.98;1.20;;;20.30;54.80;;;;;;5036344;28;20032;-64
2024/02/19 08:51:19;;;;;;;2.03;1.20;;;20.40;54.80;;;;;;5040161;28;20052;-62
2024/02/19 08:53:46;;;;;;;2.00;1.20;;;20.40;54.80;;;;;;5037772;28;20099;-63
2024/02/19 08:56:16;;;;;;;1.60;1.00;;;20.40;54.80;;;;;;5039554;28;20104;-64
2024/02/19 08:58:42;;;;;;;2.28;1.30;;;20.40;54.80;;;;;;5036423;28;20112;-64
2024/02/19 09:01:10;;;;;;;1.40;1.00;;;20.40;54.80;;;;;;5038845;28;20563;-62
2024/02/19 09:03:39;;;;;;;1.58;1.10;;;20.40;54.80;;;;;;5034206;28;20098;-63
2024/02/19 09:06:06;;;;;;;1.55;1.10;;;20.30;54.70;;;;;;5037736;28;20116;-63
2024/02/19 09:08:32;;;;;;;1.95;1.10;;;20.40;54.80;;;;;;5038132;28;20025;-63
2024/02/19 09:10:57;;;;;;;1.65;1.10;;;20.40;54.80;;;;;;5038272;28;20381;-64
2024/02/19 09:13:23;;;;;;;1.80;1.20;;;20.30;54.70;;;;;;5036491;28;20457;-64
2024/02/19 09:15:49;;;;;;;1.95;1.20;;;20.40;54.80;;;;;;5040531;28;20507;-63
2024/02/19 09:18:14;;;;;;;2.95;0.90;;;20.40;54.80;;;;;;5037394;28;20049;-63
2024/02/19 09:20:40;;;;;;;1.75;1.10;;;20.40;54.80;;;;;;5039451;28;20416;-63
2024/02/19 09:23:05;;;;;;;1.50;1.00;;;20.30;54.70;;;;;;5035768;28;20029;-70
2024/02/19 09:25:31;;;;;;;2.08;1.00;;;20.30;54.70;;;;;;5038980;28;20031;-70
2024/02/19 09:27:57;;;;;;;1.42;0.90;;;20.30;54.70;;;;;;5036170;28;20079;-70
2024/02/19 09:30:23;;;;;;;1.45;1.05;;;20.30;54.70;;;;;;5036663;28;20393;-69
2024/02/19 09:32:49;;;;;;;1.95;1.10;;;20.30;54.70;;;;;;5035024;28;20405;-70
2024/02/19 09:35:16;;;;;;;2.20;1.20;;;20.30;54.70;;;;;;5039344;28;20017;-69
2024/02/19 09:37:42;;;;;;;2.33;1.10;;;20.30;54.70;;;;;;5036286;28;20041;-69
2024/02/19 09:40:08;;;;;;;1.58;0.90;;;20.30;54.70;;;;;;5037633;28;20044;-70
2024/02/19 09:42:35;;;;;;;1.20;1.00;;;20.30;54.70;;;;;;5038760;28;20021;-64
2024/02/19 09:45:01;;;;;;;1.90;1.00;;;20.30;54.70;;;;;;5038288;28;20370;-63
2024/02/19 09:47:27;;;;;;;1.67;1.00;;;20.30;54.70;;;;;;5035597;28;20030;-64
2024/02/19 09:49:54;;;;;;;1.60;1.00;;;20.30;54.70;;;;;;5038859;28;20477;-63
2024/02/19 09:52:24;;;;;;;1.75;1.10;;;20.30;54.70;;;;;;5039377;28;20568;-64
2024/02/19 09:54:51;;;;;;;1.50;1.00;;;20.30;54.70;;;;;;5036994;28;20079;-63
2024/02/19 09:57:28;;;;;;;1.73;1.20;;;20.30;54.70;;;;;;5037574;28;20029;-63
2024/02/19 09:59:54;;;;;;;1.60;1.10;;;20.30;54.70;;;;;;5036494;28;20029;-64
2024/02/19 10:02:19;;;;;;;1.58;1.00;;;20.30;54.70;;;;;;5036323;28;20028;-66
2024/02/19 10:04:46;;;;;;;2.10;1.02;;;20.30;54.70;;;;;;5034931;28;20022;-64
2024/02/19 10:07:16;;;;;;;1.30;0.95;;;20.30;54.70;;;;;;5035984;28;20084;-63
2024/02/19 10:09:42;;;;;;;1.33;0.95;;;20.30;54.70;;;;;;5039420;28;20025;-63
2024/02/19 10:12:08;;;;;;;1.23;1.00;;;20.30;54.70;;;;;;5036126;28;20083;-63
2024/02/19 10:14:33;;;;;;;2.38;1.38;;;20.30;54.70;;;;;;5037332;28;20121;-63
2024/02/19 10:17:00;;;;;;;1.55;1.10;;;20.30;54.70;;;;;;5040872;28;20033;-63
2024/02/19 10:19:26;;;;;;;2.22;1.08;;;20.30;54.70;;;;;;5039366;28;20022;-62
2024/02/19 10:21:52;;;;;;;1.60;1.10;;;20.30;54.70;;;;;;5037405;28;20049;-63
2024/02/19 10:24:18;;;;;;;0.85;0.75;;;20.30;54.70;;;;;;5039646;28;20025;-63
2024/02/19 10:26:51;;;;;;;1.15;0.90;;;20.30;54.70;;;;;;5039728;28;20615;-63
2024/02/19 10:29:18;;;;;;;1.80;1.00;;;20.30;54.70;;;;;;5039624;28;20082;-62
2024/02/19 10:31:44;;;;;;;1.90;1.02;;;20.30;54.70;;;;;;5037610;28;20096;-64
2024/02/19 10:34:11;;;;;;;2.05;1.20;;;20.30;54.70;;;;;;5035181;28;20120;-68
2024/02/19 10:36:37;;;;;;;1.85;1.02;;;20.30;54.70;;;;;;5041505;28;20017;-69
2024/02/19 10:39:06;;;;;;;1.70;1.00;;;20.30;54.70;;;;;;5041161;28;20033;-70
2024/02/19 10:41:44;;;;;;;1.23;0.90;;;20.30;54.70;;;;;;5038643;28;20021;-70
2024/02/19 10:44:10;;;;;;;1.50;0.90;;;20.30;54.60;;;;;;5038299;28;20037;-69
2024/02/19 10:46:36;;;;;;;1.30;0.90;;;20.30;54.60;;;;;;5042116;28;20345;-70
2024/02/19 10:49:02;;;;;;;1.95;0.90;;;20.30;54.60;;;;;;5036407;28;20492;-69
2024/02/19 10:51:29;;;;;;;1.35;0.90;;;20.30;55.20;;;;;;5040371;28;20108;-70
2024/02/19 10:53:59;;;;;;;1.33;0.85;;;20.30;54.60;;;;;;5042122;28;20040;-63
2024/02/19 10:56:32;;;;;;;1.48;0.98;;;20.30;54.70;;;;;;5040519;28;20526;-62
2024/02/19 10:58:59;;;;;;;1.27;0.90;;;20.30;54.70;;;;;;5041211;28;20041;-62
2024/02/19 11:01:48;;;;;;;2.13;1.00;;;20.30;55.20;;;;;;5038886;28;20044;-62
2024/02/19 11:04:18;;;;;;;1.10;0.75;;;20.30;54.70;;;;;;5037649;28;20034;-62
2024/02/19 11:06:54;;;;;;;;;;;20.20;54.60;;;;;;5044842;28;20036;-63
2024/02/19 11:09:26;;;;;;;2.17;1.17;;;20.30;54.70;;;;;;5038951;28;20233;-63
2024/02/19 11:11:55;;;;;;;1.20;0.90;;;20.30;54.60;;;;;;5042609;28;20022;-63
2024/02/19 11:14:25;;;;;;;1.25;0.95;;;20.30;54.60;;;;;;5041079;28;20025;-62
2024/02/19 11:16:53;;;;;;;1.25;0.80;;;20.20;54.60;;;;;;5040827;28;20781;-63
2024/02/19 11:19:20;;;;;;;1.58;1.00;;;20.20;54.60;;;;;;5037383;28;20022;-63
2024/02/19 11:21:46;;;;;;;1.55;1.00;;;20.20;54.60;;;;;;5042684;28;20492;-62
2024/02/19 11:24:12;;;;;;;1.60;0.90;;;20.20;54.70;;;;;;5042646;28;20028;-63
2024/02/19 11:26:44;;;;;;;1.35;0.90;;;20.20;54.60;;;;;;5041391;28;20060;-63
2024/02/19 11:29:14;;;;;;;1.67;1.05;;;20.20;54.60;;;;;;5039257;28;20033;-63
2024/02/19 11:31:41;;;;;;;1.70;0.90;;;20.20;54.60;;;;;;5042919;28;20036;-64
2024/02/19 11:34:20;;;;;;;1.38;0.90;;;20.20;54.60;;;;;;5039864;28;20107;-62
2024/02/19 11:36:46;;;;;;;1.33;1.00;;;20.20;55.10;;;;;;5041900;28;20025;-62
2024/02/19 11:39:13;;;;;;;1.35;0.95;;;20.20;55.10;;;;;;5040668;28;20268;-63
2024/02/19 11:41:42;;;;;;;1.30;0.90;;;20.20;54.60;;;;;;5041199;28;20060;-63
2024/02/19 11:44:12;;;;;;;1.35;1.15;;;20.20;54.60;;;;;;5042240;28;20160;-63
2024/02/19 11:46:41;;;;;;;1.50;0.90;;;20.20;54.60;;;;;;5038637;28;20531;-63
2024/02/19 11:49:08;;;;;;;1.20;0.90;;;20.20;54.60;;;;;;5037392;28;20040;-63
2024/02/19 11:51:37;;;;;;;1.38;0.70;;;20.20;54.60;;;;;;5036254;28;20065;-62
2024/02/19 11:54:04;;;;;;;1.30;0.80;;;20.20;54.60;;;;;;5037686;28;20018;-64
2024/02/19 11:56:50;;;;;;;1.05;0.80;;;20.20;54.60;;;;;;5038805;28;20493;-63
2024/02/19 11:59:16;;;;;;;1.17;0.80;;;20.20;54.60;;;;;;5041348;28;20021;-63
2024/02/19 12:01:46;;;;;;;1.35;0.82;;;20.20;54.60;;;;;;5039908;28;20041;-63
2024/02/19 12:04:13;;;;;;;1.42;0.90;;;20.20;54.60;;;;;;5036781;28;20056;-65
2024/02/19 12:06:40;;;;;;;1.13;0.90;;;20.20;54.60;;;;;;5038333;28;20064;-65
2024/02/19 12:09:09;;;;;;;1.42;0.80;;;20.20;54.60;;;;;;5037445;28;20074;-65
2024/02/19 12:11:35;;;;;;;0.98;0.77;;;20.20;54.60;;;;;;5038174;28;20036;-66
2024/02/19 12:14:03;;;;;;;1.35;1.00;;;20.20;54.60;;;;;;5040209;28;20025;-68
2024/02/19 12:16:29;;;;;;;1.55;0.80;;;20.20;54.60;;;;;;5039834;28;20109;-69
2024/02/19 12:18:55;;;;;;;1.45;0.85;;;20.20;54.60;;;;;;5036332;28;20124;-70
2024/02/19 12:21:22;;;;;;;1.17;0.93;;;20.20;54.60;;;;;;5035850;28;20026;-68
2024/02/19 12:23:50;;;;;;;1.42;0.90;;;20.20;54.60;;;;;;5040672;28;20067;-69
2024/02/19 12:26:16;;;;;;;1.13;0.77;;;20.20;54.60;;;;;;5039212;28;20036;-70
2024/02/19 12:28:42;;;;;;;1.27;0.90;;;20.20;54.60;;;;;;5036052;28;20076;-69
2024/02/19 12:31:08;;;;;;;1.00;0.80;;;20.20;54.60;;;;;;5037952;28;20504;-70
2024/02/19 12:33:37;;;;;;;1.15;0.73;;;20.20;54.60;;;;;;5035016;28;20018;-69
2024/02/19 12:36:08;;;;;;;;;;;20.20;54.60;;;;;;5035559;28;20021;-70
2024/02/19 12:38:41;;;;;;;1.30;0.88;;;20.20;54.70;;;;;;5038948;28;19908;-70
2024/02/19 12:41:10;;;;;;;1.27;0.80;;;20.20;54.70;;;;;;5037206;28;20026;-69
2024/02/19 12:43:39;;;;;;;1.40;0.90;;;20.20;54.70;;;;;;5038022;28;20031;-70